Burntisland, United Kingdom

9:06 AM BST on August 28, 2014 (GMT +0100)
Burntisland | Change Station
CLOSE
Current Station
Personal Weather Station
Location: Burntisland, SCOTLAND
Elevation: 79 ft
Nearby Weather Stations

Elev 79 ft 56.06 °N, 3.22 °W | Updated 6 minutes ago

Scattered Clouds
Scattered Clouds
56.3 °F
Feels Like 56.3 °F
N
0.0
Wind Variable Wind from East
Gusts 2.0 mph

Today
High -- | Low -- °F
--% Chance of Precip.
Yesterday
High -- | Low -- °F
Precip. -- in
6:08 AM 8:18 PM
Waxing Crescent, 7% visible
Pressure 29.68 in
Visibility 6.2 miles
Clouds Scattered Clouds 1800 ft
Dew Point 39 °F
Humidity 52%
Rainfall 0.00 in
Snow Depth Not available.
UV 0.0 out of 12
Pollen Not available.
Air Quality Not available.
Flu Activity Not available.
METAR EGPH 280750Z 11005KT 070V150 9999 SCT018 16/13 Q1005

More Conditions Fewer Conditions

Pressure 29.68 in
Visibility 6.2 miles
Clouds Scattered Clouds 1800 ft
Dew Point 39 °F
Humidity 52%
Rainfall 0.00 in
Snow Depth Not available.
UV 0.0 out of 12
Pollen Not available.
Air Quality Not available.
Flu Activity Not available.
METAR EGPH 280750Z 11005KT 070V150 9999 SCT018 16/13 Q1005

More Conditions Fewer Conditions

10-Day Weather Forecast

Almanac

Astronomy

Aug. 28, 2014 Rise Set
Actual Time 6:08 AM BST 8:18 PM BST
Civil Twilight 5:28 AM BST 8:58 PM BST
Nautical Twilight 4:37 AM BST 9:49 PM BST
Astronomical Twilight 3:34 AM BST 10:50 PM BST
Moon 9:24 AM BST 8:53 PM BST
Length of Visible Light 15h 29m
Length of Day
14h 09m
Tomorrow will be 4m 31s shorter.
Waxing Crescent, 7% of the Moon is Illuminated
Today
Waxing Crescent
Sep 2
First Quarter
Sep 8
Full
Sep 15
Last Quarter
Sep 24
New

Yesterday's Extremes

Country Highs Country Lows

Community

WunderPhotos

Upload Photos

1,747,916 photos uploaded!

Nearby

Snow Depth

Not available.

Earthquake Activity

City Distance Mag. Time & Date
No recent earthquake activity has been reported nearby.
Minimum magnitude displayed is 2.5.

Coastal Water Temperatures

Place Temperature
No Stations Reporting

Nearby Weather Stations